createdAt,value
2023-03-23T00:01:26.555Z,22.20
2023-03-23T00:05:26.617Z,22.20
2023-03-23T00:09:26.704Z,22.20
2023-03-23T00:13:26.765Z,22.19
2023-03-23T00:17:26.845Z,22.19
2023-03-23T00:21:26.921Z,22.19
2023-03-23T00:25:27.048Z,22.18
2023-03-23T00:29:27.101Z,22.18
2023-03-23T00:33:27.178Z,22.18
2023-03-23T00:37:27.244Z,22.17
2023-03-23T00:41:27.309Z,22.16
2023-03-23T00:45:27.376Z,22.16
2023-03-23T00:49:27.420Z,22.17
2023-03-23T00:53:27.443Z,22.17
2023-03-23T00:57:27.497Z,22.15
2023-03-23T01:01:27.543Z,22.14
2023-03-23T01:05:27.587Z,22.14
2023-03-23T01:09:27.624Z,22.13
2023-03-23T01:13:27.674Z,22.14
2023-03-23T01:17:28.015Z,22.14
2023-03-23T01:21:28.112Z,22.13
2023-03-23T01:25:28.327Z,22.12
2023-03-23T01:29:28.510Z,22.12
2023-03-23T01:33:28.561Z,22.12
2023-03-23T01:37:28.718Z,22.12
2023-03-23T01:41:28.899Z,22.11
2023-03-23T01:45:29.143Z,22.12
2023-03-23T01:49:29.361Z,22.10
2023-03-23T01:53:29.624Z,22.10
2023-03-23T01:57:29.764Z,22.10
2023-03-23T02:01:29.971Z,22.09
2023-03-23T02:05:30.081Z,22.09
2023-03-23T02:09:30.097Z,22.08
2023-03-23T02:13:30.182Z,22.09
2023-03-23T02:17:30.331Z,22.10
2023-03-23T02:21:30.460Z,22.10
2023-03-23T02:25:30.614Z,22.13
2023-03-23T02:29:30.759Z,22.15
2023-03-23T02:33:31.030Z,22.17
2023-03-23T02:37:31.307Z,22.18
2023-03-23T02:41:31.338Z,22.21
2023-03-23T02:45:31.377Z,22.22
2023-03-23T02:49:31.400Z,22.23
2023-03-23T02:53:31.422Z,22.25
2023-03-23T02:57:40.559Z,22.26
2023-03-23T03:01:32.469Z,22.28
2023-03-23T03:05:31.545Z,22.29
2023-03-23T03:09:31.499Z,22.29
2023-03-23T03:13:31.515Z,22.30
2023-03-23T03:17:31.652Z,22.31
2023-03-23T03:21:31.541Z,22.30
2023-03-23T03:25:31.575Z,22.30
2023-03-23T03:29:31.614Z,22.30
2023-03-23T03:33:31.686Z,22.30
2023-03-23T03:37:31.729Z,22.31
2023-03-23T03:41:31.777Z,22.31
2023-03-23T03:45:31.815Z,22.30
2023-03-23T03:49:32.039Z,22.29
2023-03-23T03:53:32.326Z,22.28
2023-03-23T03:57:32.635Z,22.28
2023-03-23T04:01:32.905Z,22.29
2023-03-23T04:05:33.202Z,22.28
2023-03-23T04:09:33.230Z,22.27
2023-03-23T04:13:33.571Z,22.27
2023-03-23T04:17:33.290Z,22.27
2023-03-23T04:21:33.346Z,22.26
2023-03-23T04:25:33.410Z,22.26
2023-03-23T04:29:33.435Z,22.26
2023-03-23T04:33:58.757Z,22.27
2023-03-23T04:37:34.509Z,22.27
2023-03-23T04:41:33.600Z,22.27
2023-03-23T04:45:33.639Z,22.27
2023-03-23T04:49:33.641Z,22.27
2023-03-23T04:53:33.656Z,22.27
2023-03-23T04:57:33.675Z,22.28
2023-03-23T05:01:33.712Z,22.27
2023-03-23T05:05:33.765Z,22.27
2023-03-23T05:09:33.807Z,22.27
2023-03-23T05:13:33.838Z,22.26
2023-03-23T05:17:33.859Z,22.25
2023-03-23T05:21:33.946Z,22.26
2023-03-23T05:25:34.003Z,22.25
2023-03-23T05:29:34.055Z,22.24
2023-03-23T05:33:34.125Z,22.23
2023-03-23T05:37:34.194Z,22.23
2023-03-23T05:41:34.258Z,22.23
2023-03-23T05:45:35.304Z,22.22
2023-03-23T05:49:34.598Z,22.22
2023-03-23T05:53:34.654Z,22.22
2023-03-23T05:57:34.711Z,22.22
2023-03-23T06:01:34.778Z,22.21
2023-03-23T06:05:34.841Z,22.21
2023-03-23T06:09:34.900Z,22.21
2023-03-23T06:13:34.951Z,22.21
2023-03-23T06:17:35.033Z,22.21
2023-03-23T06:21:35.615Z,22.20
2023-03-23T06:25:35.254Z,22.21
2023-03-23T06:29:35.251Z,22.21
2023-03-23T06:33:35.364Z,22.21
2023-03-23T06:37:35.586Z,22.20
2023-03-23T06:41:35.894Z,22.20
2023-03-23T07:33:37.937Z,22.27
2023-03-23T07:37:38.044Z,22.28
2023-03-23T07:41:38.032Z,22.28
2023-03-23T07:45:39.172Z,22.27
2023-03-23T07:49:38.435Z,22.28
2023-03-23T07:53:39.151Z,22.29
2023-03-23T07:57:38.986Z,22.31
2023-03-23T08:01:39.270Z,22.31
2023-03-23T08:05:39.897Z,22.31
2023-03-23T08:33:41.477Z,22.31
2023-03-23T08:41:42.095Z,22.34
2023-03-23T08:45:42.486Z,22.36
2023-03-23T08:49:42.570Z,22.37
2023-03-23T08:53:42.831Z,22.38
2023-03-23T08:57:43.091Z,22.38
2023-03-23T09:13:44.243Z,22.40
2023-03-23T09:21:44.568Z,22.41
2023-03-23T09:25:44.809Z,22.42
2023-03-23T09:33:47.127Z,22.44
2023-03-23T09:37:45.463Z,22.45
2023-03-23T09:45:45.911Z,22.46
2023-03-23T09:49:46.104Z,22.47
2023-03-23T10:49:49.016Z,22.57
2023-03-23T10:53:49.222Z,22.57
2023-03-23T11:01:49.640Z,22.57
2023-03-23T11:05:49.845Z,22.57
2023-03-23T11:21:50.721Z,22.59
2023-03-23T11:29:58.178Z,22.61
2023-03-23T11:34:00.420Z,22.63
2023-03-23T11:37:52.233Z,22.64
2023-03-23T11:45:51.222Z,22.69
2023-03-23T11:49:51.285Z,22.72
2023-03-23T11:53:51.732Z,22.73
2023-03-23T12:01:51.383Z,22.76
2023-03-23T12:25:51.580Z,22.98
2023-03-23T12:33:51.676Z,23.12
2023-03-23T12:37:51.896Z,23.19
2023-03-23T12:41:51.925Z,23.27
2023-03-23T12:45:51.948Z,23.35
2023-03-23T12:49:51.976Z,23.44
2023-03-23T12:53:51.986Z,23.52
2023-03-23T12:57:51.986Z,23.59
2023-03-23T13:01:51.990Z,23.58
2023-03-23T13:05:52.062Z,23.64
2023-03-23T13:17:52.019Z,23.62
2023-03-23T13:21:53.251Z,23.60
2023-03-23T13:57:52.303Z,23.87
2023-03-23T14:01:52.322Z,23.91
2023-03-23T14:05:52.372Z,23.94
2023-03-23T14:09:52.379Z,24.01
2023-03-23T14:57:52.280Z,24.30
2023-03-23T15:01:52.240Z,24.25
2023-03-23T15:21:52.281Z,24.06
2023-03-23T15:29:52.228Z,23.97
2023-03-23T15:37:52.155Z,23.88
2023-03-23T15:41:52.134Z,23.84
2023-03-23T15:45:52.105Z,23.80
2023-03-23T15:49:52.141Z,23.75
2023-03-23T15:53:52.216Z,23.71
2023-03-23T15:57:52.090Z,23.67
2023-03-23T16:01:52.072Z,23.64
2023-03-23T16:05:52.065Z,23.60
2023-03-23T16:09:52.075Z,23.59
2023-03-23T16:13:52.069Z,23.56
2023-03-23T16:17:52.131Z,23.54
2023-03-23T16:21:52.063Z,23.51
2023-03-23T16:25:52.076Z,23.48
2023-03-23T16:30:03.073Z,23.46
2023-03-23T16:33:53.143Z,23.42
2023-03-23T16:37:52.151Z,23.40
2023-03-23T16:41:53.153Z,23.37
2023-03-23T16:45:52.188Z,23.36
2023-03-23T16:49:52.359Z,23.33
2023-03-23T16:53:52.610Z,23.31
2023-03-23T16:57:58.202Z,23.29
2023-03-23T17:01:53.920Z,23.27
2023-03-23T17:05:53.349Z,23.24
2023-03-23T17:09:53.183Z,23.22
2023-03-23T17:13:53.204Z,23.20
2023-03-23T17:17:53.308Z,23.18
2023-03-23T17:21:53.259Z,23.16
2023-03-23T17:25:53.284Z,23.14
2023-03-23T17:29:53.320Z,23.12
2023-03-23T17:33:53.345Z,23.10
2023-03-23T17:37:53.669Z,23.08
2023-03-23T17:41:53.409Z,23.06
2023-03-23T17:45:53.437Z,23.04
2023-03-23T17:49:53.464Z,23.04
2023-03-23T17:53:53.512Z,23.01
2023-03-23T17:57:53.529Z,22.99
2023-03-23T18:01:53.630Z,22.98
2023-03-23T18:05:53.571Z,22.95
2023-03-23T18:09:53.583Z,22.93
2023-03-23T18:13:53.613Z,22.92
2023-03-23T18:17:53.648Z,22.91
2023-03-23T18:21:53.698Z,22.89
2023-03-23T18:25:53.870Z,22.87
2023-03-23T18:29:53.760Z,22.87
2023-03-23T18:33:53.895Z,22.84
2023-03-23T18:37:54.071Z,22.83
2023-03-23T18:41:54.067Z,22.81
2023-03-23T18:45:54.214Z,22.80
2023-03-23T18:49:54.475Z,22.78
2023-03-23T18:53:54.494Z,22.77
2023-03-23T18:57:54.639Z,22.76
2023-03-23T19:01:54.848Z,22.75
2023-03-23T19:05:54.964Z,22.74
2023-03-23T19:09:55.153Z,22.73
2023-03-23T19:14:02.415Z,22.72
2023-03-23T19:17:56.403Z,22.72
2023-03-23T19:21:55.460Z,22.70
2023-03-23T19:25:55.435Z,22.69
2023-03-23T19:29:55.465Z,22.68
2023-03-23T19:33:55.571Z,22.67
2023-03-23T19:37:55.892Z,22.66
2023-03-23T19:41:56.251Z,22.65
2023-03-23T19:45:56.154Z,22.65
2023-03-23T19:49:56.412Z,22.63
2023-03-23T19:53:56.631Z,22.63
2023-03-23T19:57:56.746Z,22.62
2023-03-23T20:01:56.909Z,22.60
2023-03-23T20:05:57.081Z,22.60
2023-03-23T20:09:57.295Z,22.58
2023-03-23T20:13:57.752Z,22.58
2023-03-23T20:17:58.297Z,22.58
2023-03-23T20:21:57.786Z,22.57
2023-03-23T20:25:57.962Z,22.56
2023-03-23T20:29:58.158Z,22.56
2023-03-23T20:34:00.158Z,22.55
2023-03-23T20:37:58.403Z,22.55
2023-03-23T20:41:58.481Z,22.54
2023-03-23T20:45:58.508Z,22.52
2023-03-23T20:49:59.424Z,22.52
2023-03-23T20:53:58.571Z,22.51
2023-03-23T20:57:58.596Z,22.51
2023-03-23T21:01:58.650Z,22.49
2023-03-23T21:05:58.678Z,22.50
2023-03-23T21:09:58.937Z,22.48
2023-03-23T21:13:58.764Z,22.47
2023-03-23T21:17:58.838Z,22.46
2023-03-23T21:21:58.833Z,22.46
2023-03-23T21:25:59.020Z,22.45
2023-03-23T21:29:59.241Z,22.44
2023-03-23T21:33:59.480Z,22.44
2023-03-23T21:37:59.786Z,22.44
2023-03-23T21:41:59.962Z,22.43
2023-03-23T21:46:00.210Z,22.42
2023-03-23T21:50:00.449Z,22.43
2023-03-23T21:54:00.700Z,22.42
2023-03-23T21:58:00.949Z,22.42
2023-03-23T22:02:01.476Z,22.41
2023-03-23T22:06:01.531Z,22.41
2023-03-23T22:10:01.736Z,22.40
2023-03-23T22:14:02.010Z,22.39
2023-03-23T22:18:02.378Z,22.38
2023-03-23T22:22:02.529Z,22.38
2023-03-23T22:26:02.808Z,22.38
2023-03-23T22:30:03.066Z,22.37
2023-03-23T22:34:03.380Z,22.36
2023-03-23T22:38:03.628Z,22.36
2023-03-23T22:42:03.917Z,22.35
2023-03-23T22:46:04.277Z,22.35
2023-03-23T22:50:04.484Z,22.35
2023-03-23T22:54:04.780Z,22.33
2023-03-23T22:58:05.137Z,22.32
2023-03-23T23:02:05.413Z,22.32
2023-03-23T23:06:05.652Z,22.32
2023-03-23T23:10:05.954Z,22.31
2023-03-23T23:14:06.259Z,22.30
2023-03-23T23:18:06.655Z,22.29
2023-03-23T23:22:18.453Z,22.29
2023-03-23T23:26:08.000Z,22.29
2023-03-23T23:30:07.057Z,22.28
2023-03-23T23:34:07.123Z,22.26
2023-03-23T23:38:07.221Z,22.25
2023-03-23T23:42:07.283Z,22.25
2023-03-23T23:46:07.524Z,22.24
2023-03-23T23:50:07.545Z,22.24
2023-03-23T23:54:07.623Z,22.25
2023-03-23T23:58:07.685Z,22.24
